Terminal Aerodrome Forecast
Issued by NWS

Current Version | Previous Version | Text Only | Print | Product List | Glossary On
Versions: 1 2 3 4 5 6 7 8 9 10 11 12 13 14
000
FTUS42 TJSJ 301700
TAFJSJ
TAF
TJSJ 301727Z 3018/3118 32007KT P6SM SCT030 SCT050
     FM302230 11005KT P6SM FEW025 SCT040
     FM311230 22008KT P6SM FEW030 SCT050
     FM311730 VRB10KT P6SM VCTS SCT025CB BKN050=

USA.gov is the U.S. government's official web portal to all federal, state and local government web resources and services.